createdAt,value
2023-04-15T00:00:02.445Z,7.10
2023-04-15T00:02:15.002Z,7.10
2023-04-15T00:04:17.739Z,7.10
2023-04-15T00:06:20.950Z,7.00
2023-04-15T00:08:23.935Z,6.90
2023-04-15T00:10:26.395Z,6.70
2023-04-15T00:12:28.905Z,6.60
2023-04-15T00:14:31.553Z,6.40
2023-04-15T00:16:34.045Z,6.30
2023-04-15T00:18:36.837Z,6.20
2023-04-15T00:20:39.394Z,6.20
2023-04-15T00:22:41.872Z,6.20
2023-04-15T00:24:44.372Z,6.10
2023-04-15T00:26:46.923Z,6.10
2023-04-15T00:28:49.516Z,6.00
2023-04-15T00:30:52.057Z,6.00
2023-04-15T00:32:54.822Z,6.10
2023-04-15T00:34:57.982Z,6.10
2023-04-15T00:37:00.474Z,6.20
2023-04-15T00:39:03.097Z,6.10
2023-04-15T00:41:05.794Z,6.20
2023-04-15T00:43:08.384Z,6.20
2023-04-15T00:45:11.767Z,6.20
2023-04-15T00:47:15.088Z,6.40
2023-04-15T00:49:17.773Z,6.40
2023-04-15T00:51:20.832Z,6.40
2023-04-15T00:53:23.643Z,6.50
2023-04-15T00:55:26.127Z,6.40
2023-04-15T00:57:29.064Z,6.40
2023-04-15T00:59:33.199Z,6.40
2023-04-15T01:01:36.476Z,6.30
2023-04-15T01:03:39.988Z,6.30
2023-04-15T01:05:43.903Z,6.30
2023-04-15T01:07:47.048Z,6.30
2023-04-15T01:09:49.816Z,6.20
2023-04-15T01:11:53.164Z,6.30
2023-04-15T01:13:56.875Z,6.30
2023-04-15T01:15:59.585Z,6.40
2023-04-15T01:18:02.767Z,6.30
2023-04-15T01:20:08.928Z,6.20
2023-04-15T01:22:11.676Z,6.20
2023-04-15T01:24:16.491Z,6.20
2023-04-15T01:26:20.078Z,6.10
2023-04-15T01:28:23.847Z,6.10
2023-04-15T01:30:26.996Z,5.90
2023-04-15T01:32:30.807Z,5.90
2023-04-15T01:34:35.742Z,5.80
2023-04-15T01:36:39.422Z,5.70
2023-04-15T01:38:43.172Z,5.60
2023-04-15T01:40:46.559Z,5.50
2023-04-15T01:42:49.818Z,5.60
2023-04-15T01:44:53.170Z,5.50
2023-04-15T01:46:59.002Z,5.40
2023-04-15T01:49:02.829Z,5.40
2023-04-15T01:51:07.614Z,5.30
2023-04-15T01:53:12.156Z,5.20
2023-04-15T01:55:20.057Z,5.20
2023-04-15T01:57:26.942Z,5.20
2023-04-15T01:59:31.389Z,5.10
2023-04-15T02:01:34.714Z,5.10
2023-04-15T02:03:38.479Z,5.00
2023-04-15T02:05:41.155Z,5.00
2023-04-15T02:07:43.736Z,4.80
2023-04-15T02:09:46.354Z,4.80
2023-04-15T02:11:49.353Z,4.70
2023-04-15T02:13:52.369Z,4.60
2023-04-15T02:15:55.580Z,4.50
2023-04-15T02:18:00.017Z,4.50
2023-04-15T02:20:04.191Z,4.40
2023-04-15T02:22:08.687Z,4.50
2023-04-15T02:24:11.775Z,4.50
2023-04-15T02:26:16.390Z,4.50
2023-04-15T02:28:18.864Z,4.50
2023-04-15T02:30:23.400Z,4.30
2023-04-15T02:32:25.990Z,4.30
2023-04-15T02:34:31.004Z,4.30
2023-04-15T02:36:34.005Z,4.30
2023-04-15T02:38:37.549Z,4.20
2023-04-15T02:40:40.190Z,4.30
2023-04-15T02:42:43.713Z,4.30
2023-04-15T02:44:48.122Z,4.40
2023-04-15T02:46:52.986Z,4.30
2023-04-15T02:48:58.714Z,4.40
2023-04-15T02:51:14.041Z,4.40
2023-04-15T02:53:16.922Z,4.30
2023-04-15T02:55:19.524Z,4.20
2023-04-15T02:57:22.289Z,4.30
2023-04-15T02:59:24.969Z,4.30
2023-04-15T03:01:27.603Z,4.30
2023-04-15T03:03:30.181Z,4.20
2023-04-15T03:05:33.097Z,4.20
2023-04-15T03:07:36.073Z,4.20
2023-04-15T03:09:40.000Z,4.20
2023-04-15T03:11:42.775Z,4.20
2023-04-15T03:13:45.652Z,4.20
2023-04-15T03:15:50.121Z,4.20
2023-04-15T03:17:52.895Z,4.20
2023-04-15T03:19:55.770Z,4.20
2023-04-15T03:21:58.811Z,4.20
2023-04-15T03:24:01.793Z,4.20
2023-04-15T03:26:04.624Z,4.30
2023-04-15T03:28:08.076Z,4.30
2023-04-15T03:30:11.745Z,4.30
2023-04-15T03:32:14.662Z,4.30
2023-04-15T03:34:17.291Z,4.30
2023-04-15T03:36:19.752Z,4.30
2023-04-15T03:38:22.266Z,4.20
2023-04-15T03:40:24.860Z,4.20
2023-04-15T03:42:27.299Z,4.10
2023-04-15T03:44:29.982Z,4.00
2023-04-15T03:46:32.798Z,4.00
2023-04-15T03:48:35.274Z,3.90
2023-04-15T03:50:37.789Z,3.90
2023-04-15T03:52:40.258Z,3.90
2023-04-15T03:54:42.707Z,3.80
2023-04-15T03:56:45.977Z,3.70
2023-04-15T03:58:48.475Z,3.60
2023-04-15T04:00:50.962Z,3.60
2023-04-15T04:02:53.691Z,3.50
2023-04-15T04:04:56.366Z,3.40
2023-04-15T04:06:58.827Z,3.40
2023-04-15T04:09:01.703Z,3.40
2023-04-15T04:11:04.991Z,3.50
2023-04-15T04:13:07.448Z,3.40
2023-04-15T04:15:10.952Z,3.50
2023-04-15T04:17:13.706Z,3.50
2023-04-15T04:19:18.008Z,3.60
2023-04-15T04:21:20.898Z,3.60
2023-04-15T04:23:23.374Z,3.50
2023-04-15T04:25:26.710Z,3.50
2023-04-15T04:27:29.190Z,3.40
2023-04-15T04:29:31.895Z,3.40
2023-04-15T04:31:34.383Z,3.30
2023-04-15T04:33:36.885Z,3.30
2023-04-15T04:35:39.460Z,3.40
2023-04-15T04:37:42.050Z,3.40
2023-04-15T04:39:44.532Z,3.40
2023-04-15T04:41:47.008Z,3.40
2023-04-15T04:43:49.528Z,3.50
2023-04-15T04:45:52.044Z,3.50
2023-04-15T04:47:54.635Z,3.50
2023-04-15T04:49:57.211Z,3.50
2023-04-15T04:51:59.892Z,3.50
2023-04-15T04:54:03.717Z,3.50
2023-04-15T04:56:06.652Z,3.50
2023-04-15T04:58:09.140Z,3.50
2023-04-15T05:00:12.610Z,3.50
2023-04-15T05:02:15.198Z,3.50
2023-04-15T05:04:17.858Z,3.50
2023-04-15T05:06:20.486Z,3.50
2023-04-15T05:08:22.978Z,3.50
2023-04-15T05:10:25.559Z,3.50
2023-04-15T05:12:28.074Z,3.50
2023-04-15T05:14:31.639Z,3.50
2023-04-15T05:16:34.136Z,3.60
2023-04-15T05:18:37.308Z,3.60
2023-04-15T05:20:39.875Z,3.70
2023-04-15T05:22:43.173Z,3.70
2023-04-15T05:24:45.934Z,3.80
2023-04-15T05:26:48.416Z,3.80
2023-04-15T05:28:50.893Z,3.90
2023-04-15T05:30:53.572Z,4.00
2023-04-15T05:32:56.062Z,4.00
2023-04-15T05:34:58.593Z,4.00
2023-04-15T05:37:01.106Z,4.20
2023-04-15T05:39:03.860Z,4.20
2023-04-15T05:41:06.421Z,4.20
2023-04-15T05:43:08.961Z,4.20
2023-04-15T05:45:12.030Z,4.30
2023-04-15T05:47:14.471Z,4.30
2023-04-15T05:49:16.955Z,4.40
2023-04-15T05:51:19.466Z,4.40
2023-04-15T05:53:21.943Z,4.40
2023-04-15T05:55:24.428Z,4.50
2023-04-15T05:57:26.890Z,4.50
2023-04-15T05:59:29.399Z,4.60
2023-04-15T06:01:33.021Z,4.70
2023-04-15T06:03:35.853Z,4.70
2023-04-15T06:05:38.631Z,4.70
2023-04-15T06:07:41.101Z,4.70
2023-04-15T06:09:44.268Z,4.80
2023-04-15T06:11:46.785Z,4.90
2023-04-15T06:13:49.254Z,4.90
2023-04-15T06:15:51.773Z,5.00
2023-04-15T06:17:54.366Z,5.10
2023-04-15T06:19:56.895Z,5.20
2023-04-15T06:21:59.460Z,5.20
2023-04-15T06:24:02.739Z,5.30
2023-04-15T06:26:05.426Z,5.40
2023-04-15T06:28:08.212Z,5.50
2023-04-15T06:30:11.493Z,5.60
2023-04-15T06:32:13.991Z,5.70
2023-04-15T06:34:16.579Z,5.80
2023-04-15T06:36:19.067Z,5.80
2023-04-15T06:38:21.584Z,5.90
2023-04-15T06:40:24.078Z,6.00
2023-04-15T06:42:26.555Z,6.00
2023-04-15T06:44:31.174Z,6.10
2023-04-15T06:46:34.212Z,6.20
2023-04-15T06:48:36.676Z,6.30
2023-04-15T06:50:39.327Z,6.30
2023-04-15T06:52:41.839Z,6.40
2023-04-15T06:54:44.337Z,6.50
2023-04-15T06:56:47.291Z,6.60
2023-04-15T06:58:50.091Z,6.70
2023-04-15T07:00:52.645Z,6.80
2023-04-15T07:02:55.647Z,6.90
2023-04-15T07:04:58.187Z,7.00
2023-04-15T07:07:01.960Z,7.10
2023-04-15T07:09:05.090Z,7.20
2023-04-15T07:11:08.127Z,7.30
2023-04-15T07:13:10.775Z,7.30
2023-04-15T07:15:13.289Z,7.40
2023-04-15T07:17:15.859Z,7.50
2023-04-15T07:19:18.326Z,7.60
2023-04-15T07:21:20.809Z,7.60
2023-04-15T07:23:23.327Z,7.70
2023-04-15T07:25:25.811Z,7.80
2023-04-15T07:27:28.275Z,7.90
2023-04-15T07:29:30.902Z,8.00
2023-04-15T07:31:33.496Z,8.00
2023-04-15T07:33:36.564Z,8.10
2023-04-15T07:35:39.012Z,8.10
2023-04-15T07:37:42.655Z,8.20
2023-04-15T07:39:45.157Z,8.30
2023-04-15T07:41:48.532Z,8.30
2023-04-15T07:43:51.295Z,8.50
2023-04-15T07:45:53.816Z,8.60
2023-04-15T07:47:56.353Z,8.80
2023-04-15T07:49:59.707Z,8.90
2023-04-15T07:52:02.282Z,9.00
2023-04-15T07:54:04.821Z,9.00
2023-04-15T07:56:07.802Z,9.10
2023-04-15T07:58:10.271Z,9.10
2023-04-15T08:00:14.243Z,9.20
2023-04-15T08:02:16.933Z,9.20
2023-04-15T08:04:19.786Z,9.10
2023-04-15T08:06:22.371Z,9.10
2023-04-15T08:08:25.840Z,9.10
2023-04-15T08:10:29.382Z,9.00
2023-04-15T08:12:31.836Z,9.10
2023-04-15T08:14:34.822Z,9.10
2023-04-15T08:16:37.523Z,9.20
2023-04-15T08:18:40.120Z,9.30
2023-04-15T08:20:42.690Z,9.30
2023-04-15T08:22:45.848Z,9.40
2023-04-15T08:24:48.359Z,9.40
2023-04-15T08:26:50.853Z,9.30
2023-04-15T08:28:53.295Z,9.40
2023-04-15T08:30:56.000Z,9.40
2023-04-15T08:32:58.584Z,9.40
2023-04-15T08:35:01.150Z,9.40
2023-04-15T08:37:03.644Z,9.30
2023-04-15T08:39:06.323Z,9.40
2023-04-15T08:41:10.623Z,9.40
2023-04-15T08:43:15.147Z,9.40
2023-04-15T08:45:18.063Z,9.40
2023-04-15T08:47:21.895Z,9.50
2023-04-15T08:49:25.760Z,9.60
2023-04-15T08:51:28.661Z,9.60
2023-04-15T08:53:31.274Z,9.60
2023-04-15T08:55:35.478Z,9.60
2023-04-15T08:57:39.249Z,9.60
2023-04-15T08:59:43.016Z,9.50
2023-04-15T09:01:45.856Z,9.50
2023-04-15T09:03:48.991Z,9.60
2023-04-15T09:05:53.263Z,9.50
2023-04-15T09:07:56.144Z,9.50
2023-04-15T09:09:58.682Z,9.40
2023-04-15T09:12:02.028Z,9.50
2023-04-15T09:14:04.487Z,9.50
2023-04-15T09:16:08.799Z,9.50
2023-04-15T09:18:12.516Z,9.50
2023-04-15T09:20:15.893Z,9.50
2023-04-15T09:22:20.273Z,9.50
2023-04-15T09:24:22.762Z,9.50
2023-04-15T09:26:32.834Z,9.50
2023-04-15T09:28:41.154Z,9.50
2023-04-15T09:30:45.599Z,9.60
2023-04-15T09:32:51.730Z,9.70
2023-04-15T09:34:54.280Z,9.70
2023-04-15T09:36:57.185Z,9.70
2023-04-15T09:38:59.973Z,9.70
2023-04-15T09:41:02.767Z,9.70
2023-04-15T09:43:05.951Z,9.70
2023-04-15T09:45:11.810Z,9.70
2023-04-15T09:47:27.686Z,9.60
2023-04-15T09:49:30.231Z,9.50
2023-04-15T09:51:34.857Z,9.50
2023-04-15T09:53:37.695Z,9.60
2023-04-15T09:55:41.994Z,9.60
2023-04-15T09:57:46.510Z,9.50
2023-04-15T09:59:48.982Z,9.50
2023-04-15T10:01:51.798Z,9.50
2023-04-15T10:03:56.545Z,9.50
2023-04-15T10:05:59.787Z,9.50
2023-04-15T10:08:02.439Z,9.50
2023-04-15T10:10:06.169Z,9.50
2023-04-15T10:12:08.805Z,9.50
2023-04-15T10:14:11.432Z,9.50
2023-04-15T10:16:14.892Z,9.40
2023-04-15T10:18:19.252Z,9.50
2023-04-15T10:20:22.471Z,9.40
2023-04-15T10:22:26.646Z,9.40
2023-04-15T10:24:31.418Z,9.30
2023-04-15T10:26:34.365Z,9.30
2023-04-15T10:28:36.864Z,9.30
2023-04-15T10:30:39.444Z,9.30
2023-04-15T10:32:42.244Z,9.30
2023-04-15T10:34:45.546Z,9.20
2023-04-15T10:36:48.160Z,9.30
2023-04-15T10:38:50.655Z,9.30
2023-04-15T10:40:53.194Z,9.40
2023-04-15T10:42:56.494Z,9.30
2023-04-15T10:45:00.056Z,9.40
2023-04-15T10:47:04.393Z,9.40
2023-04-15T10:49:11.051Z,9.40
2023-04-15T10:51:14.161Z,9.40
2023-04-15T10:53:19.059Z,9.40
2023-04-15T10:55:23.382Z,9.40
2023-04-15T10:57:27.676Z,9.40
2023-04-15T10:59:30.306Z,9.40
2023-04-15T11:01:51.699Z,9.40
2023-04-15T11:03:55.513Z,9.50
2023-04-15T11:05:58.085Z,9.50
2023-04-15T11:08:00.655Z,9.50
2023-04-15T11:10:04.183Z,9.50
2023-04-15T11:12:07.870Z,9.40
2023-04-15T11:14:15.641Z,9.40
2023-04-15T11:16:18.373Z,9.40
2023-04-15T11:18:21.706Z,9.30
2023-04-15T11:20:24.733Z,9.30
2023-04-15T11:22:27.226Z,9.30
2023-04-15T11:24:29.727Z,9.30
2023-04-15T11:26:32.227Z,9.20
2023-04-15T11:28:35.801Z,9.30
2023-04-15T11:30:39.712Z,9.20
2023-04-15T11:32:43.528Z,9.30
2023-04-15T11:34:47.903Z,9.20
2023-04-15T11:36:51.344Z,9.20
2023-04-15T11:38:53.963Z,9.10
2023-04-15T11:40:56.482Z,9.10
2023-04-15T11:43:05.442Z,9.20
2023-04-15T11:45:08.891Z,9.20
2023-04-15T11:47:22.870Z,9.20
2023-04-15T11:49:29.560Z,9.20
2023-04-15T11:51:33.038Z,9.20
2023-04-15T11:53:40.165Z,9.20
2023-04-15T11:55:44.024Z,9.20
2023-04-15T11:57:46.476Z,9.30
2023-04-15T11:59:49.002Z,9.20
2023-04-15T12:01:51.887Z,9.20
2023-04-15T12:03:54.505Z,9.10
2023-04-15T12:06:07.687Z,9.10
2023-04-15T12:08:10.567Z,9.10
2023-04-15T12:10:13.093Z,9.00
2023-04-15T12:12:17.461Z,9.10
2023-04-15T12:14:22.118Z,9.10
2023-04-15T12:16:24.762Z,9.10
2023-04-15T12:18:27.366Z,9.10
2023-04-15T12:20:30.747Z,9.20
2023-04-15T12:22:35.071Z,9.20
2023-04-15T12:24:38.172Z,9.20
2023-04-15T12:26:45.266Z,9.20
2023-04-15T12:28:47.743Z,9.20
2023-04-15T12:30:51.880Z,9.20
2023-04-15T12:32:54.813Z,9.20
2023-04-15T12:34:57.684Z,9.10
2023-04-15T12:37:01.775Z,9.20
2023-04-15T12:39:04.390Z,9.10
2023-04-15T12:41:06.897Z,9.10
2023-04-15T12:43:09.375Z,9.10
2023-04-15T12:45:12.028Z,9.10
2023-04-15T12:47:14.515Z,9.10
2023-04-15T12:49:18.932Z,9.10
2023-04-15T12:51:21.407Z,9.10
2023-04-15T12:53:23.976Z,9.10
2023-04-15T12:55:26.489Z,9.00
2023-04-15T12:57:29.001Z,9.00
2023-04-15T12:59:31.459Z,9.00
2023-04-15T13:01:33.949Z,9.00
2023-04-15T13:03:36.717Z,9.00
2023-04-15T13:05:39.649Z,9.00
2023-04-15T13:07:42.251Z,9.00
2023-04-15T13:09:44.732Z,9.10
2023-04-15T13:11:47.205Z,9.10
2023-04-15T13:13:49.828Z,9.10
2023-04-15T13:15:52.412Z,9.10
2023-04-15T13:17:54.925Z,9.10
2023-04-15T13:19:57.651Z,9.10
2023-04-15T13:22:00.128Z,9.20
2023-04-15T13:24:03.020Z,9.20
2023-04-15T13:26:05.856Z,9.30
2023-04-15T13:28:08.365Z,9.30
2023-04-15T13:30:11.383Z,9.30
2023-04-15T13:32:13.858Z,9.30
2023-04-15T13:34:16.361Z,9.30
2023-04-15T13:36:19.185Z,9.30
2023-04-15T13:38:21.686Z,9.30
2023-04-15T13:40:27.052Z,9.30
2023-04-15T13:42:29.552Z,9.30
2023-04-15T13:44:32.066Z,9.30
2023-04-15T13:46:34.545Z,9.20
2023-04-15T13:48:37.033Z,9.20
2023-04-15T13:50:41.706Z,9.20
2023-04-15T13:52:44.341Z,9.20
2023-04-15T13:54:47.294Z,9.20
2023-04-15T13:56:51.585Z,9.20
2023-04-15T13:58:56.354Z,9.20
2023-04-15T14:00:58.902Z,9.10
2023-04-15T14:03:01.614Z,9.10
2023-04-15T14:05:04.468Z,9.10
2023-04-15T14:07:07.047Z,9.10
2023-04-15T14:09:09.751Z,9.10
2023-04-15T14:11:12.389Z,9.10
2023-04-15T14:13:15.187Z,9.10
2023-04-15T14:15:17.977Z,9.10
2023-04-15T14:17:20.585Z,9.00
2023-04-15T14:19:23.629Z,9.10
2023-04-15T14:21:27.357Z,9.00
2023-04-15T14:23:29.849Z,9.10
2023-04-15T14:25:34.021Z,9.00
2023-04-15T14:27:36.688Z,9.00
2023-04-15T14:29:39.211Z,9.00
2023-04-15T14:31:41.889Z,9.00
2023-04-15T14:33:46.242Z,9.00
2023-04-15T14:35:49.286Z,9.00
2023-04-15T14:37:52.547Z,9.00
2023-04-15T14:39:55.034Z,9.00
2023-04-15T14:41:57.548Z,9.00
2023-04-15T14:44:00.040Z,8.90
2023-04-15T14:46:02.653Z,8.90
2023-04-15T14:48:06.063Z,9.00
2023-04-15T14:50:09.899Z,8.90
2023-04-15T14:52:12.505Z,8.90
2023-04-15T14:54:15.014Z,9.00
2023-04-15T14:56:17.521Z,9.00
2023-04-15T14:58:20.010Z,9.00
2023-04-15T15:00:22.603Z,9.00
2023-04-15T15:02:37.553Z,8.90
2023-04-15T15:04:29.681Z,8.90
2023-04-15T15:06:32.408Z,8.90
2023-04-15T15:08:36.604Z,8.90
2023-04-15T15:10:49.092Z,8.90
2023-04-15T15:12:43.524Z,8.90
2023-04-15T15:14:46.119Z,8.80
2023-04-15T15:16:48.611Z,8.90
2023-04-15T15:18:51.105Z,8.80
2023-04-15T15:20:53.829Z,8.80
2023-04-15T15:22:56.522Z,8.80
2023-04-15T15:24:59.184Z,8.80
2023-04-15T15:27:02.353Z,8.80
2023-04-15T15:29:05.012Z,8.80
2023-04-15T15:31:07.674Z,8.80
2023-04-15T15:33:10.340Z,8.70
2023-04-15T15:35:12.839Z,8.70
2023-04-15T15:37:15.305Z,8.80
2023-04-15T15:39:17.804Z,8.70
2023-04-15T15:41:20.720Z,8.80
2023-04-15T15:43:23.214Z,8.70
2023-04-15T15:45:25.700Z,8.70
2023-04-15T15:47:28.224Z,8.70
2023-04-15T15:49:30.983Z,8.70
2023-04-15T15:51:33.542Z,8.70
2023-04-15T15:53:36.239Z,8.70
2023-04-15T15:55:38.740Z,8.70
2023-04-15T15:57:41.245Z,8.70
2023-04-15T15:59:43.784Z,8.70
2023-04-15T16:01:47.583Z,8.70
2023-04-15T16:03:50.374Z,8.70
2023-04-15T16:05:53.011Z,8.70
2023-04-15T16:07:55.519Z,8.70
2023-04-15T16:09:58.139Z,8.60
2023-04-15T16:12:01.399Z,8.60
2023-04-15T16:14:04.026Z,8.60
2023-04-15T16:16:06.994Z,8.60
2023-04-15T16:18:09.585Z,8.60
2023-04-15T16:20:12.209Z,8.60
2023-04-15T16:22:14.782Z,8.50
2023-04-15T16:24:17.343Z,8.50
2023-04-15T16:26:19.811Z,8.50
2023-04-15T16:28:26.699Z,8.50
2023-04-15T16:30:26.785Z,8.50
2023-04-15T16:32:30.145Z,8.50
2023-04-15T16:34:32.717Z,8.50
2023-04-15T16:36:35.501Z,8.50
2023-04-15T16:38:38.019Z,8.50
2023-04-15T16:40:40.806Z,8.50
2023-04-15T16:42:43.318Z,8.40
2023-04-15T16:44:45.789Z,8.50
2023-04-15T16:46:48.352Z,8.40
2023-04-15T16:48:50.836Z,8.40
2023-04-15T16:50:53.289Z,8.40
2023-04-15T16:52:55.864Z,8.40
2023-04-15T16:54:58.355Z,8.40
2023-04-15T16:57:02.012Z,8.40
2023-04-15T16:59:04.827Z,8.40
2023-04-15T17:01:08.175Z,8.40
2023-04-15T17:03:10.844Z,8.40
2023-04-15T17:05:13.777Z,8.40
2023-04-15T17:07:16.255Z,8.40
2023-04-15T17:09:18.762Z,8.30
2023-04-15T17:11:21.325Z,8.40
2023-04-15T17:13:25.198Z,8.40
2023-04-15T17:15:27.731Z,8.30
2023-04-15T17:17:30.353Z,8.40
2023-04-15T17:19:33.036Z,8.40
2023-04-15T17:21:35.778Z,8.40
2023-04-15T17:23:38.290Z,8.40
2023-04-15T17:25:40.903Z,8.40
2023-04-15T17:27:43.412Z,8.30
2023-04-15T17:29:46.070Z,8.40
2023-04-15T17:31:48.563Z,8.40
2023-04-15T17:34:04.003Z,8.40
2023-04-15T17:35:57.910Z,8.40
2023-04-15T17:38:00.391Z,8.30
2023-04-15T17:40:02.962Z,8.30
2023-04-15T17:42:05.661Z,8.30
2023-04-15T17:44:08.135Z,8.30
2023-04-15T17:46:12.468Z,8.30
2023-04-15T17:48:15.132Z,8.40
2023-04-15T17:50:17.743Z,8.40
2023-04-15T17:52:20.335Z,8.30
2023-04-15T17:54:22.894Z,8.40
2023-04-15T17:56:26.651Z,8.30
2023-04-15T17:58:30.341Z,8.40
2023-04-15T18:00:32.918Z,8.30
2023-04-15T18:02:37.249Z,8.30
2023-04-15T18:04:39.935Z,8.30
2023-04-15T18:06:42.683Z,8.30
2023-04-15T18:08:45.164Z,8.30
2023-04-15T18:10:47.627Z,8.30
2023-04-15T18:12:50.181Z,8.30
2023-04-15T18:14:53.151Z,8.20
2023-04-15T18:16:55.834Z,8.30
2023-04-15T18:18:58.428Z,8.30
2023-04-15T18:21:01.278Z,8.30
2023-04-15T18:23:03.765Z,8.30
2023-04-15T18:25:07.450Z,8.30
2023-04-15T18:27:09.916Z,8.30
2023-04-15T18:29:12.396Z,8.30
2023-04-15T18:31:15.122Z,8.30
2023-04-15T18:33:17.672Z,8.20
2023-04-15T18:35:20.511Z,8.20
2023-04-15T18:37:23.792Z,8.20
2023-04-15T18:39:26.537Z,8.20
2023-04-15T18:41:29.153Z,8.20
2023-04-15T18:43:31.766Z,8.20
2023-04-15T18:45:34.249Z,8.20
2023-04-15T18:47:36.861Z,8.20
2023-04-15T18:49:40.933Z,8.20
2023-04-15T18:51:43.427Z,8.20
2023-04-15T18:53:45.928Z,8.20
2023-04-15T18:55:48.498Z,8.20
2023-04-15T18:57:50.963Z,8.20
2023-04-15T18:59:54.180Z,8.20
2023-04-15T19:01:56.775Z,8.20
2023-04-15T19:03:59.387Z,8.20
2023-04-15T19:06:02.163Z,8.20
2023-04-15T19:08:05.372Z,8.20
2023-04-15T19:10:08.417Z,8.20
2023-04-15T19:12:10.968Z,8.20
2023-04-15T19:14:13.541Z,8.20
2023-04-15T19:16:16.897Z,8.20
2023-04-15T19:18:20.358Z,8.20
2023-04-15T19:20:23.097Z,8.20
2023-04-15T19:22:26.808Z,8.20
2023-04-15T19:24:32.756Z,8.20
2023-04-15T19:26:36.197Z,8.20
2023-04-15T19:28:38.730Z,8.20
2023-04-15T19:30:41.391Z,8.20
2023-04-15T19:32:44.028Z,8.20
2023-04-15T19:34:46.612Z,8.20
2023-04-15T19:36:49.180Z,8.20
2023-04-15T19:38:52.032Z,8.20
2023-04-15T19:40:56.607Z,8.20
2023-04-15T19:42:59.382Z,8.20
2023-04-15T19:45:03.131Z,8.20
2023-04-15T19:47:08.272Z,8.20
2023-04-15T19:49:11.614Z,8.20
2023-04-15T19:51:15.799Z,8.20
2023-04-15T19:53:19.123Z,8.20
2023-04-15T19:55:21.825Z,8.20
2023-04-15T19:57:24.765Z,8.20
2023-04-15T19:59:27.795Z,8.20
2023-04-15T20:01:30.564Z,8.20
2023-04-15T20:03:36.716Z,8.20
2023-04-15T20:05:47.244Z,8.20
2023-04-15T20:07:52.551Z,8.20
2023-04-15T20:09:56.041Z,8.20
2023-04-15T20:12:10.040Z,8.20
2023-04-15T20:14:04.442Z,8.20
2023-04-15T20:16:12.279Z,8.20
2023-04-15T20:18:16.280Z,8.20
2023-04-15T20:20:19.756Z,8.20
2023-04-15T20:22:23.312Z,8.20
2023-04-15T20:24:27.453Z,8.20
2023-04-15T20:26:31.435Z,8.20
2023-04-15T20:28:34.486Z,8.20
2023-04-15T20:30:38.802Z,8.20
2023-04-15T20:32:41.537Z,8.20
2023-04-15T20:34:44.480Z,8.20
2023-04-15T20:36:47.169Z,8.20
2023-04-15T20:38:50.023Z,8.20
2023-04-15T20:40:52.869Z,8.20
2023-04-15T20:42:55.573Z,8.20
2023-04-15T20:44:58.296Z,8.20
2023-04-15T20:47:00.986Z,8.20
2023-04-15T20:49:04.548Z,8.20
2023-04-15T20:51:07.408Z,8.20
2023-04-15T20:53:09.977Z,8.20
2023-04-15T20:55:12.523Z,8.30
2023-04-15T20:57:15.005Z,8.20
2023-04-15T20:59:17.499Z,8.20
2023-04-15T21:01:20.234Z,8.20
2023-04-15T21:03:23.137Z,8.20
2023-04-15T21:05:25.779Z,8.20
2023-04-15T21:07:28.243Z,8.20
2023-04-15T21:09:30.747Z,8.20
2023-04-15T21:11:53.177Z,8.20
2023-04-15T21:13:37.781Z,8.20
2023-04-15T21:15:40.926Z,8.20
2023-04-15T21:17:43.457Z,8.20
2023-04-15T21:19:46.010Z,8.20
2023-04-15T21:21:48.490Z,8.20
2023-04-15T21:23:51.064Z,8.30
2023-04-15T21:25:53.548Z,8.20
2023-04-15T21:27:56.034Z,8.30
2023-04-15T21:29:58.494Z,8.30
2023-04-15T21:32:01.037Z,8.30
2023-04-15T21:34:03.493Z,8.20
2023-04-15T21:36:06.220Z,8.20
2023-04-15T21:38:08.818Z,8.20
2023-04-15T21:40:12.686Z,8.30
2023-04-15T21:42:15.217Z,8.30
2023-04-15T21:44:17.728Z,8.20
2023-04-15T21:46:21.864Z,8.20
2023-04-15T21:48:24.495Z,8.20
2023-04-15T21:50:27.189Z,8.30
2023-04-15T21:52:29.678Z,8.30
2023-04-15T21:54:32.879Z,8.20
2023-04-15T21:56:36.240Z,8.20
2023-04-15T21:58:38.738Z,8.20
2023-04-15T22:00:41.321Z,8.30
2023-04-15T22:02:43.918Z,8.30
2023-04-15T22:04:46.601Z,8.30
2023-04-15T22:06:49.074Z,8.20
2023-04-15T22:08:57.578Z,8.30
2023-04-15T22:10:55.979Z,8.30
2023-04-15T22:13:00.270Z,8.30
2023-04-15T22:15:02.776Z,8.30
2023-04-15T22:17:05.486Z,8.30
2023-04-15T22:19:08.889Z,8.30
2023-04-15T22:21:12.297Z,8.30
2023-04-15T22:23:17.465Z,8.30
2023-04-15T22:25:20.096Z,8.30
2023-04-15T22:27:22.587Z,8.40
2023-04-15T22:29:25.340Z,8.20
2023-04-15T22:31:27.841Z,8.30
2023-04-15T22:33:30.385Z,8.30
2023-04-15T22:35:33.728Z,8.30
2023-04-15T22:37:36.255Z,8.30
2023-04-15T22:39:38.695Z,8.30
2023-04-15T22:41:41.201Z,8.30
2023-04-15T22:43:45.539Z,8.30
2023-04-15T22:45:49.548Z,8.30
2023-04-15T22:47:52.080Z,8.30
2023-04-15T22:49:54.598Z,8.40
2023-04-15T22:51:57.072Z,8.30
2023-04-15T22:53:59.775Z,8.30
2023-04-15T22:56:02.347Z,8.40
2023-04-15T22:58:04.958Z,8.40
2023-04-15T23:00:08.707Z,8.40
2023-04-15T23:02:11.465Z,8.40
2023-04-15T23:04:28.070Z,8.30
2023-04-15T23:06:19.022Z,8.30
2023-04-15T23:08:23.327Z,8.40
2023-04-15T23:10:25.780Z,8.30
2023-04-15T23:12:28.286Z,8.40
2023-04-15T23:14:31.327Z,8.40
2023-04-15T23:16:33.857Z,8.30
2023-04-15T23:18:36.412Z,8.30
2023-04-15T23:20:38.892Z,8.30
2023-04-15T23:22:42.572Z,8.30
2023-04-15T23:24:45.211Z,8.30
2023-04-15T23:26:47.685Z,8.30
2023-04-15T23:28:50.199Z,8.30
2023-04-15T23:30:52.872Z,8.30
2023-04-15T23:32:55.371Z,8.30
2023-04-15T23:34:57.999Z,8.40
2023-04-15T23:37:00.442Z,8.40
2023-04-15T23:39:02.954Z,8.40
2023-04-15T23:41:05.569Z,8.30
2023-04-15T23:43:08.022Z,8.30
2023-04-15T23:45:11.555Z,8.30
2023-04-15T23:47:14.034Z,8.30
2023-04-15T23:49:17.865Z,8.30
2023-04-15T23:51:20.894Z,8.30
2023-04-15T23:53:23.381Z,8.30
2023-04-15T23:55:25.871Z,8.30
2023-04-15T23:57:28.358Z,8.40
2023-04-15T23:59:30.966Z,8.30
